Time;durP1;ratioP1;P1;durP2;ratioP2;P2;SDS_P1;SDS_P2;PMS_P1;PMS_P2;Temp;Humidity;BMP_temperature;BMP_pressure;BME280_temperature;BME280_humidity;BME280_pressure;Samples;Min_cycle;Max_cycle;Signal;HPM_P1;HPM_P2
2023/06/22 00:00:32;;;;;;;;;;;;;;;19.85;67.83;101404.34;107393;1253;110215;-65
2023/06/22 00:03:21;;;;;;;;;;;;;;;19.80;68.16;101397.84;107381;1254;109303;-66
2023/06/22 00:05:50;;;;;;;;;;;;;;;19.76;68.27;101395.66;107400;1257;99192;-66
2023/06/22 00:08:19;;;;;;;;;;;;;;;19.75;68.68;101393.42;107446;1253;99059;-66
2023/06/22 00:10:47;;;;;;;;;;;;;;;19.75;68.25;101393.86;107450;1254;112870;-67
2023/06/22 00:13:17;;;;;;;;;;;;;;;19.80;68.12;101386.76;107426;1257;109691;-66
2023/06/22 00:15:46;;;;;;;;;;;;;;;19.85;68.07;101390.14;107416;1254;107660;-66
2023/06/22 00:18:14;;;;;;;;;;;;;;;19.90;68.00;101388.50;107386;1254;99177;-66
2023/06/22 00:20:42;;;;;;;;;;;;;;;19.94;67.73;101383.22;107446;1253;99166;-65
2023/06/22 00:23:11;;;;;;;;;;;;;;;19.97;68.02;101383.52;107431;1254;113061;-65
2023/06/22 00:25:42;;;;;;;;;;;;;;;19.96;67.51;101383.78;107420;1254;109937;-65
2023/06/22 00:28:10;;;;;;;;;;;;;;;19.96;67.31;101388.63;107416;1254;107448;-68
2023/06/22 00:30:38;;;;;;;;;;;;;;;19.97;67.39;101392.79;107378;1254;99242;-67
2023/06/22 00:33:07;;;;;;;;;;;;;;;20.00;67.58;101397.44;107394;1253;99061;-65
2023/06/22 00:35:36;;;;;;;;;;;;;;;20.03;67.58;101399.61;107388;1254;113668;-65
2023/06/22 00:38:04;;;;;;;;;;;;;;;20.03;67.54;101402.31;107421;1254;109701;-68
2023/06/22 00:40:33;;;;;;;;;;;;;;;20.01;67.74;101404.61;107350;1254;108272;-65
2023/06/22 00:43:01;;;;;;;;;;;;;;;19.99;67.98;101406.92;107262;1254;99305;-65
2023/06/22 00:45:30;;;;;;;;;;;;;;;19.97;67.86;101402.21;107435;1254;99176;-67
2023/06/22 00:47:59;;;;;;;;;;;;;;;19.96;67.63;101403.24;107422;1254;113302;-69
2023/06/22 00:50:33;;;;;;;;;;;;;;;19.92;67.87;101406.62;107453;1254;108910;-69
2023/06/22 00:53:08;;;;;;;;;;;;;;;19.90;67.74;101404.22;107377;1253;107347;-70
2023/06/22 00:55:38;;;;;;;;;;;;;;;19.88;67.83;101408.21;107401;1254;99221;-69
2023/06/22 00:58:10;;;;;;;;;;;;;;;19.88;67.89;101407.50;107360;1253;99301;-68
2023/06/22 01:00:39;;;;;;;;;;;;;;;19.85;68.02;101410.34;107426;1253;112499;-65
2023/06/22 01:03:11;;;;;;;;;;;;;;;19.78;68.22;101409.52;107314;1254;109217;-65
2023/06/22 01:05:40;;;;;;;;;;;;;;;19.76;67.97;101410.33;107273;1254;108033;-67
2023/06/22 01:08:08;;;;;;;;;;;;;;;19.78;68.15;101418.09;107353;1254;99279;-67
2023/06/22 01:10:52;;;;;;;;;;;;;;;19.79;67.99;101417.27;107431;1253;99083;-65
2023/06/22 01:13:25;;;;;;;;;;;;;;;19.80;67.93;101419.89;107330;1254;112299;-66
2023/06/22 01:16:02;;;;;;;;;;;;;;;19.78;67.97;101415.32;107388;1254;109950;-67
2023/06/22 01:18:33;;;;;;;;;;;;;;;19.77;67.79;101412.89;107365;1253;107395;-68
2023/06/22 01:21:02;;;;;;;;;;;;;;;19.75;68.26;101423.88;107368;1254;99234;-66
2023/06/22 01:23:46;;;;;;;;;;;;;;;19.76;67.96;101426.04;107401;1254;99131;-68
2023/06/22 01:26:18;;;;;;;;;;;;;;;19.70;68.02;101418.66;107421;1254;113300;-66
2023/06/22 01:28:50;;;;;;;;;;;;;;;19.66;68.09;101419.85;107421;1253;109373;-66
2023/06/22 01:31:24;;;;;;;;;;;;;;;19.61;68.23;101417.35;107396;1254;108319;-67
2023/06/22 01:33:54;;;;;;;;;;;;;;;19.59;68.34;101416.09;107381;1254;99154;-65
2023/06/22 01:36:24;;;;;;;;;;;;;;;19.58;68.64;101418.30;107299;1259;99135;-67
2023/06/22 01:38:52;;;;;;;;;;;;;;;19.55;68.61;101417.62;107410;1254;112601;-68
2023/06/22 01:41:21;;;;;;;;;;;;;;;19.52;68.73;101414.78;107469;1253;109324;-67
2023/06/22 01:43:49;;;;;;;;;;;;;;;19.46;68.75;101417.02;107427;1254;107299;-67
2023/06/22 01:46:19;;;;;;;;;;;;;;;19.41;68.61;101418.73;107376;1254;99185;-66
2023/06/22 01:48:48;;;;;;;;;;;;;;;19.33;68.73;101418.61;107387;1254;99146;-66
2023/06/22 01:51:16;;;;;;;;;;;;;;;19.23;69.57;101420.08;107408;1254;111526;-66
2023/06/22 01:53:45;;;;;;;;;;;;;;;19.14;69.58;101417.34;107448;1254;109725;-66
2023/06/22 01:56:16;;;;;;;;;;;;;;;19.08;69.70;101415.24;107394;1253;107860;-66
2023/06/22 01:58:52;;;;;;;;;;;;;;;19.05;69.82;101418.36;107293;1253;99253;-67
2023/06/22 02:01:24;;;;;;;;;;;;;;;19.04;70.17;101418.63;107348;1254;99107;-66
2023/06/22 02:04:02;;;;;;;;;;;;;;;19.03;70.05;101425.29;107430;1254;112270;-66
2023/06/22 02:06:35;;;;;;;;;;;;;;;18.99;69.99;101426.45;107428;1253;108147;-65
2023/06/22 02:09:08;;;;;;;;;;;;;;;18.91;70.29;101433.34;107348;1254;108485;-66
2023/06/22 02:11:41;;;;;;;;;;;;;;;18.84;70.43;101432.70;107282;1254;99242;-66
2023/06/22 02:14:10;;;;;;;;;;;;;;;18.82;70.69;101430.98;107311;1254;99272;-66
2023/06/22 02:16:40;;;;;;;;;;;;;;;18.82;70.81;101434.23;107396;1254;112881;-66
2023/06/22 02:19:09;;;;;;;;;;;;;;;18.82;71.07;101437.49;107448;1254;109133;-64
2023/06/22 02:21:38;;;;;;;;;;;;;;;18.82;71.38;101437.87;107437;1254;108181;-67
2023/06/22 02:24:06;;;;;;;;;;;;;;;18.79;71.12;101436.88;107439;1254;99231;-66
2023/06/22 02:26:34;;;;;;;;;;;;;;;18.76;71.05;101441.55;107427;1253;99207;-67
2023/06/22 02:29:02;;;;;;;;;;;;;;;18.73;71.50;101443.88;107387;1254;112579;-71
2023/06/22 02:31:31;;;;;;;;;;;;;;;18.70;71.50;101445.02;107435;1254;109313;-68
2023/06/22 02:33:59;;;;;;;;;;;;;;;18.65;71.43;101444.11;107401;1254;107950;-66
2023/06/22 02:36:30;;;;;;;;;;;;;;;18.59;71.39;101447.86;107395;1254;99159;-66
2023/06/22 02:39:01;;;;;;;;;;;;;;;18.55;71.75;101442.06;107423;1254;99246;-67
2023/06/22 02:41:31;;;;;;;;;;;;;;;18.52;71.62;101439.35;107419;1254;113083;-67
2023/06/22 02:43:59;;;;;;;;;;;;;;;18.49;71.76;101433.54;107323;1254;109192;-67
2023/06/22 02:46:27;;;;;;;;;;;;;;;18.47;72.02;101431.30;107322;1254;107329;-66
2023/06/22 02:48:56;;;;;;;;;;;;;;;18.44;71.74;101428.73;107280;1254;99193;-66
2023/06/22 02:51:24;;;;;;;;;;;;;;;18.43;72.00;101425.80;107455;1254;99069;-66
2023/06/22 02:53:57;;;;;;;;;;;;;;;18.43;72.12;101426.89;107433;1253;114166;-66
2023/06/22 02:56:26;;;;;;;;;;;;;;;18.45;72.16;101424.69;107366;1254;109154;-65
2023/06/22 02:59:00;;;;;;;;;;;;;;;18.47;72.13;101417.77;107472;1254;108555;-66
2023/06/22 03:01:30;;;;;;;;;;;;;;;18.48;72.08;101413.27;107316;1254;99204;-66
2023/06/22 03:03:59;;;;;;;;;;;;;;;18.50;72.23;101410.63;107343;1254;99282;-65
2023/06/22 03:06:28;;;;;;;;;;;;;;;18.49;72.32;101409.39;107421;1253;112788;-67
2023/06/22 03:09:00;;;;;;;;;;;;;;;18.49;72.49;101404.52;107413;1254;108964;-66
2023/06/22 03:11:30;;;;;;;;;;;;;;;18.50;72.44;101407.36;107165;1254;107941;-70
2023/06/22 03:13:59;;;;;;;;;;;;;;;18.49;72.69;101404.29;107424;1254;99186;-67
2023/06/22 03:16:29;;;;;;;;;;;;;;;18.50;73.06;101406.20;107418;1254;99149;-66
2023/06/22 03:18:59;;;;;;;;;;;;;;;18.52;72.97;101399.65;107422;1254;111952;-68
2023/06/22 03:21:28;;;;;;;;;;;;;;;18.54;73.08;101404.13;107354;1259;109301;-67
2023/06/22 03:23:57;;;;;;;;;;;;;;;18.54;72.91;101400.96;107411;1254;107669;-70
2023/06/22 03:26:26;;;;;;;;;;;;;;;18.54;73.03;101399.52;107080;1254;99118;-67
2023/06/22 03:28:55;;;;;;;;;;;;;;;18.54;73.20;101404.98;107207;1254;99267;-68
2023/06/22 03:31:23;;;;;;;;;;;;;;;18.56;73.32;101409.55;107474;1254;112418;-68
2023/06/22 03:33:52;;;;;;;;;;;;;;;18.58;73.14;101411.48;107345;1254;108797;-70
2023/06/22 03:36:23;;;;;;;;;;;;;;;18.59;73.47;101412.98;107356;1254;107164;-70
2023/06/22 03:38:51;;;;;;;;;;;;;;;18.64;73.88;101418.05;107418;1254;99176;-68
2023/06/22 03:41:20;;;;;;;;;;;;;;;18.71;73.97;101413.84;107470;1257;99310;-67
2023/06/22 03:43:48;;;;;;;;;;;;;;;18.77;74.03;101415.12;107416;1253;112698;-69
2023/06/22 03:46:16;;;;;;;;;;;;;;;18.84;74.22;101418.50;107408;1257;110134;-66
2023/06/22 03:48:45;;;;;;;;;;;;;;;18.93;73.93;101420.95;107432;1254;107824;-67
2023/06/22 03:51:13;;;;;;;;;;;;;;;19.01;73.75;101421.20;107325;1254;99188;-65
2023/06/22 03:53:41;;;;;;;;;;;;;;;19.07;73.38;101423.21;107406;1253;99249;-67
2023/06/22 03:56:09;;;;;;;;;;;;;;;19.11;73.64;101432.17;107429;1254;113136;-67
2023/06/22 03:58:42;;;;;;;;;;;;;;;19.17;73.83;101437.74;107392;1253;109256;-66
2023/06/22 04:01:11;;;;;;;;;;;;;;;19.22;74.26;101439.65;107400;1254;107818;-67
2023/06/22 04:03:40;;;;;;;;;;;;;;;19.28;74.20;101439.49;107318;1254;99272;-66
2023/06/22 04:06:09;;;;;;;;;;;;;;;19.29;73.72;101441.23;107409;1254;99243;-66
2023/06/22 04:08:40;;;;;;;;;;;;;;;19.35;73.67;101442.95;107398;1254;112576;-64
2023/06/22 04:11:09;;;;;;;;;;;;;;;19.44;73.37;101441.67;107396;1257;109247;-67
2023/06/22 04:13:37;;;;;;;;;;;;;;;19.52;73.53;101442.76;107386;1254;108135;-66
2023/06/22 04:16:05;;;;;;;;;;;;;;;19.57;73.06;101442.77;107421;1254;99258;-66
2023/06/22 04:18:32;;;;;;;;;;;;;;;19.51;72.33;101445.95;107405;1254;99025;-67
2023/06/22 04:21:01;;;;;;;;;;;;;;;19.48;72.25;101446.73;107440;1254;113151;-67
2023/06/22 04:23:30;;;;;;;;;;;;;;;19.49;72.31;101443.73;107386;1254;108960;-67
2023/06/22 04:25:59;;;;;;;;;;;;;;;19.52;72.29;101443.46;107405;1254;106729;-67
2023/06/22 04:28:27;;;;;;;;;;;;;;;19.58;72.12;101441.93;107392;1254;99166;-67
2023/06/22 04:30:58;;;;;;;;;;;;;;;19.63;72.00;101446.24;107488;1254;99055;-67
2023/06/22 04:33:26;;;;;;;;;;;;;;;19.66;71.92;101460.04;107403;1254;112512;-65
2023/06/22 04:35:56;;;;;;;;;;;;;;;19.68;72.23;101466.88;107395;1256;109260;-66
2023/06/22 04:38:25;;;;;;;;;;;;;;;19.69;72.05;101470.39;107399;1254;108690;-67
2023/06/22 04:40:53;;;;;;;;;;;;;;;19.73;71.93;101463.27;107372;1254;99071;-67
2023/06/22 04:43:21;;;;;;;;;;;;;;;19.77;71.70;101458.30;107401;1256;99182;-66
2023/06/22 04:45:52;;;;;;;;;;;;;;;19.81;71.46;101463.28;107465;1254;113070;-68
2023/06/22 04:48:20;;;;;;;;;;;;;;;19.87;71.33;101462.56;107410;1253;108801;-66
2023/06/22 04:50:49;;;;;;;;;;;;;;;19.96;71.12;101463.15;107380;1254;108476;-65
2023/06/22 04:53:17;;;;;;;;;;;;;;;20.04;70.76;101461.99;107367;1254;99187;-68
2023/06/22 04:55:46;;;;;;;;;;;;;;;20.10;70.65;101460.21;107417;1254;99064;-65
2023/06/22 04:58:15;;;;;;;;;;;;;;;20.18;70.40;101458.14;107448;1254;113224;-65
2023/06/22 05:00:44;;;;;;;;;;;;;;;20.29;70.34;101461.67;107448;1254;110573;-67
2023/06/22 05:03:12;;;;;;;;;;;;;;;20.38;69.96;101462.45;107435;1254;108141;-65
2023/06/22 05:05:47;;;;;;;;;;;;;;;20.45;69.82;101458.83;107442;1254;99332;-67
2023/06/22 05:08:16;;;;;;;;;;;;;;;20.52;69.42;101460.16;107434;1257;99224;-65
2023/06/22 05:10:44;;;;;;;;;;;;;;;20.58;69.18;101457.85;107429;1254;112629;-68
2023/06/22 05:13:32;;;;;;;;;;;;;;;20.61;68.83;101457.41;107454;1254;109940;-66
2023/06/22 05:16:02;;;;;;;;;;;;;;;20.67;68.72;101452.52;107442;1254;108245;-65
2023/06/22 05:18:31;;;;;;;;;;;;;;;20.72;68.48;101450.86;107452;1257;99054;-65
2023/06/22 05:21:00;;;;;;;;;;;;;;;20.75;68.11;101448.02;107417;1254;99230;-65
2023/06/22 05:23:28;;;;;;;;;;;;;;;20.80;67.89;101446.31;107456;1253;113524;-66
2023/06/22 05:25:57;;;;;;;;;;;;;;;20.85;67.82;101447.35;107459;1254;109202;-66
2023/06/22 05:28:26;;;;;;;;;;;;;;;20.89;67.71;101448.22;107429;1254;107799;-66
2023/06/22 05:30:54;;;;;;;;;;;;;;;20.93;67.54;101444.82;107466;1254;99221;-66
2023/06/22 05:33:22;;;;;;;;;;;;;;;20.97;67.42;101445.37;107472;1253;99198;-68
2023/06/22 05:35:51;;;;;;;;;;;;;;;20.98;67.57;101449.42;107433;1254;113118;-67
2023/06/22 05:38:19;;;;;;;;;;;;;;;21.01;67.51;101452.30;107455;1253;109057;-68
2023/06/22 05:40:47;;;;;;;;;;;;;;;21.04;67.25;101453.59;107437;1257;107722;-66
2023/06/22 05:43:15;;;;;;;;;;;;;;;21.08;67.36;101456.05;107437;1254;99191;-68
2023/06/22 05:45:44;;;;;;;;;;;;;;;21.11;67.21;101458.49;107342;1254;99048;-67
2023/06/22 05:48:12;;;;;;;;;;;;;;;21.18;67.16;101460.44;107528;1253;113143;-67
2023/06/22 05:50:41;;;;;;;;;;;;;;;21.23;67.08;101465.94;107448;1253;109867;-67
2023/06/22 05:53:09;;;;;;;;;;;;;;;21.29;67.00;101466.81;107439;1257;108240;-66
2023/06/22 05:55:38;;;;;;;;;;;;;;;21.33;67.03;101467.54;107427;1257;99258;-65
2023/06/22 05:58:06;;;;;;;;;;;;;;;21.36;66.85;101471.66;107411;1254;99769;-65
2023/06/22 06:00:34;;;;;;;;;;;;;;;21.42;66.86;101477.56;107430;1253;113054;-66
2023/06/22 06:03:03;;;;;;;;;;;;;;;21.48;66.73;101468.09;107404;1254;109866;-67
2023/06/22 06:05:32;;;;;;;;;;;;;;;21.54;66.52;101455.80;107467;1254;107414;-66
2023/06/22 06:08:01;;;;;;;;;;;;;;;21.61;66.45;101455.02;107451;1254;99371;-68
2023/06/22 06:10:30;;;;;;;;;;;;;;;21.70;66.31;101452.60;107459;1254;99186;-66
2023/06/22 06:13:01;;;;;;;;;;;;;;;21.80;66.29;101450.73;107367;1254;112000;-66
2023/06/22 06:15:30;;;;;;;;;;;;;;;21.89;66.04;101445.64;107470;1254;108197;-69
2023/06/22 06:17:58;;;;;;;;;;;;;;;21.97;65.90;101445.84;107420;1254;108299;-66
2023/06/22 06:20:29;;;;;;;;;;;;;;;22.05;65.93;101450.85;107388;1254;99271;-66
2023/06/22 06:22:58;;;;;;;;;;;;;;;22.13;65.76;101444.40;107449;1254;99195;-66
2023/06/22 06:25:27;;;;;;;;;;;;;;;22.22;65.65;101442.73;107449;1254;113318;-67
2023/06/22 06:27:57;;;;;;;;;;;;;;;22.32;65.52;101445.02;107477;1253;109102;-66
2023/06/22 06:30:25;;;;;;;;;;;;;;;22.41;65.03;101445.00;107391;1254;108326;-69
2023/06/22 06:32:54;;;;;;;;;;;;;;;22.49;64.66;101445.05;107426;1254;99161;-67
2023/06/22 06:35:25;;;;;;;;;;;;;;;22.59;63.98;101446.14;107382;1254;99093;-67
2023/06/22 06:37:54;;;;;;;;;;;;;;;22.67;63.94;101445.56;107365;1254;112975;-66
2023/06/22 06:40:25;;;;;;;;;;;;;;;22.75;63.55;101446.89;107451;1254;109742;-67
2023/06/22 06:42:57;;;;;;;;;;;;;;;22.82;63.21;101448.53;107415;1257;108270;-66
2023/06/22 06:45:25;;;;;;;;;;;;;;;22.90;63.22;101445.89;107392;1257;99163;-67
2023/06/22 06:47:54;;;;;;;;;;;;;;;22.98;63.11;101443.52;107410;1254;99173;-67
2023/06/22 06:50:22;;;;;;;;;;;;;;;23.07;63.27;101444.13;107417;1257;113016;-65
2023/06/22 06:52:50;;;;;;;;;;;;;;;23.17;63.15;101449.13;107404;1258;109551;-66
2023/06/22 06:55:20;;;;;;;;;;;;;;;23.24;62.48;101447.61;107357;1258;107732;-66
2023/06/22 06:57:49;;;;;;;;;;;;;;;23.33;62.50;101452.13;107435;1254;99064;-65
2023/06/22 07:00:18;;;;;;;;;;;;;;;23.41;62.12;101450.00;107483;1254;99054;-66
2023/06/22 07:02:48;;;;;;;;;;;;;;;23.51;62.05;101446.54;107460;1254;113843;-67
2023/06/22 07:05:16;;;;;;;;;;;;;;;23.61;61.81;101447.50;107488;1254;109636;-66
2023/06/22 07:07:44;;;;;;;;;;;;;;;23.69;61.44;101453.35;107438;1254;108828;-67
2023/06/22 07:10:13;;;;;;;;;;;;;;;23.76;59.80;101454.09;107431;1254;99176;-65
2023/06/22 07:12:41;;;;;;;;;;;;;;;23.85;59.60;101453.27;107468;1254;99224;-66
2023/06/22 07:15:09;;;;;;;;;;;;;;;23.94;59.96;101449.11;107487;1254;112927;-68
2023/06/22 07:17:41;;;;;;;;;;;;;;;24.03;59.33;101443.51;107524;1254;109520;-67
2023/06/22 07:20:11;;;;;;;;;;;;;;;24.12;59.50;101442.67;107476;1254;108080;-65
2023/06/22 07:22:42;;;;;;;;;;;;;;;24.20;59.31;101442.30;107460;1254;99162;-67
2023/06/22 07:25:13;;;;;;;;;;;;;;;24.30;58.74;101443.87;107528;1253;99175;-65
2023/06/22 07:27:47;;;;;;;;;;;;;;;24.39;58.72;101444.54;107426;1254;112696;-69
2023/06/22 07:30:15;;;;;;;;;;;;;;;24.48;58.22;101444.46;107476;1254;108391;-67
2023/06/22 07:32:44;;;;;;;;;;;;;;;24.55;58.42;101439.52;107451;1254;108357;-69
2023/06/22 07:35:12;;;;;;;;;;;;;;;24.64;57.29;101444.10;107442;1257;99163;-68
2023/06/22 07:37:40;;;;;;;;;;;;;;;24.70;57.20;101440.77;107471;1258;99160;-68
2023/06/22 07:40:10;;;;;;;;;;;;;;;24.75;56.12;101445.26;107439;1254;112727;-67
2023/06/22 07:42:38;;;;;;;;;;;;;;;24.84;56.62;101443.11;107422;1254;109436;-68
2023/06/22 07:45:07;;;;;;;;;;;;;;;24.94;56.79;101432.09;107351;1256;108222;-66
2023/06/22 07:47:36;;;;;;;;;;;;;;;25.05;56.73;101434.71;107401;1254;99208;-66
2023/06/22 07:50:05;;;;;;;;;;;;;;;25.15;56.41;101433.79;107442;1254;99061;-66
2023/06/22 07:52:35;;;;;;;;;;;;;;;25.23;56.45;101428.33;107436;1254;111627;-66
2023/06/22 07:55:03;;;;;;;;;;;;;;;25.34;56.30;101433.98;107382;1257;109254;-68
2023/06/22 07:57:33;;;;;;;;;;;;;;;25.43;56.39;101431.75;107408;1254;108227;-66
2023/06/22 08:00:15;;;;;;;;;;;;;;;25.52;56.25;101428.27;107254;1257;99163;-64
2023/06/22 08:02:46;;;;;;;;;;;;;;;25.60;55.52;101429.38;106497;1254;1186570;-66
2023/06/22 08:05:15;;;;;;;;;;;;;;;25.70;55.46;101426.52;107381;1254;113367;-66
2023/06/22 08:07:46;;;;;;;;;;;;;;;25.80;55.53;101429.04;107427;1254;108844;-66
2023/06/22 08:10:16;;;;;;;;;;;;;;;25.91;55.51;101425.10;107408;1254;108615;-65
2023/06/22 08:12:44;;;;;;;;;;;;;;;26.04;55.27;101426.50;107408;1254;99175;-66
2023/06/22 08:15:12;;;;;;;;;;;;;;;26.16;54.33;101428.05;107452;1254;99164;-66
2023/06/22 08:17:40;;;;;;;;;;;;;;;26.28;54.24;101427.23;107451;1254;113686;-67
2023/06/22 08:20:11;;;;;;;;;;;;;;;26.42;52.87;101424.21;107446;1254;108676;-66
2023/06/22 08:22:41;;;;;;;;;;;;;;;26.54;52.59;101421.30;107394;1254;107126;-67
2023/06/22 08:25:10;;;;;;;;;;;;;;;26.65;52.36;101424.67;107409;1254;99256;-65
2023/06/22 08:27:38;;;;;;;;;;;;;;;26.77;52.24;101425.29;107431;1254;99295;-67
2023/06/22 08:30:07;;;;;;;;;;;;;;;26.91;50.19;101423.77;107449;1254;113317;-69
2023/06/22 08:32:35;;;;;;;;;;;;;;;27.02;49.40;101425.77;107420;1254;108549;-67
2023/06/22 08:35:07;;;;;;;;;;;;;;;27.15;48.51;101423.38;107407;1254;108016;-70
2023/06/22 08:37:38;;;;;;;;;;;;;;;27.26;49.18;101422.30;107339;1254;99234;-71
2023/06/22 08:40:09;;;;;;;;;;;;;;;27.37;48.79;101418.96;107300;1257;99267;-68
2023/06/22 08:42:40;;;;;;;;;;;;;;;27.50;48.16;101418.39;107314;1257;113847;-66
2023/06/22 08:45:09;;;;;;;;;;;;;;;27.64;46.37;101416.98;107402;1257;109069;-65
2023/06/22 08:47:38;;;;;;;;;;;;;;;27.74;46.42;101415.66;107298;1254;108174;-67
2023/06/22 08:50:08;;;;;;;;;;;;;;;27.86;46.13;101409.88;107484;1254;99171;-66
2023/06/22 08:52:37;;;;;;;;;;;;;;;27.98;45.86;101411.91;107537;1254;99043;-67
2023/06/22 08:55:06;;;;;;;;;;;;;;;28.14;45.00;101413.88;107498;1257;113365;-67
2023/06/22 08:57:34;;;;;;;;;;;;;;;28.25;45.98;101412.23;107516;1254;109375;-66
2023/06/22 09:00:04;;;;;;;;;;;;;;;28.42;44.52;101407.95;107494;1254;108102;-66
2023/06/22 09:02:32;;;;;;;;;;;;;;;28.46;44.64;101415.50;107302;1257;99164;-65
2023/06/22 09:05:03;;;;;;;;;;;;;;;28.54;44.72;101419.26;107469;1254;99137;-67
2023/06/22 09:07:31;;;;;;;;;;;;;;;28.74;44.53;101422.44;107515;1258;112740;-67
2023/06/22 09:10:04;;;;;;;;;;;;;;;28.95;43.56;101422.90;107525;1254;109144;-71
2023/06/22 09:12:37;;;;;;;;;;;;;;;29.16;43.16;101420.25;107379;1254;107298;-69
2023/06/22 09:15:07;;;;;;;;;;;;;;;29.39;43.09;101416.89;107468;1258;99234;-68
2023/06/22 09:17:41;;;;;;;;;;;;;;;29.70;43.62;101420.84;107531;1254;99157;-67
2023/06/22 09:20:11;;;;;;;;;;;;;;;30.05;42.77;101418.15;107501;1254;112987;-67
2023/06/22 09:22:39;;;;;;;;;;;;;;;30.34;42.31;101417.29;107477;1260;110254;-68
2023/06/22 09:25:08;;;;;;;;;;;;;;;30.56;41.43;101412.81;107512;1254;107657;-66
2023/06/22 09:27:37;;;;;;;;;;;;;;;30.77;40.22;101410.45;107478;1254;99198;-67
2023/06/22 09:30:05;;;;;;;;;;;;;;;30.97;39.95;101409.84;107491;1254;99273;-67
2023/06/22 09:32:34;;;;;;;;;;;;;;;31.18;39.34;101413.39;107550;1254;113714;-66
2023/06/22 09:35:05;;;;;;;;;;;;;;;31.33;39.52;101411.77;107481;1254;109843;-67
2023/06/22 09:37:34;;;;;;;;;;;;;;;31.52;38.87;101407.75;107501;1254;107630;-68
2023/06/22 09:40:08;;;;;;;;;;;;;;;31.78;38.39;101406.87;107455;1254;99223;-65
2023/06/22 09:42:36;;;;;;;;;;;;;;;31.95;38.16;101402.29;107418;1254;99073;-66
2023/06/22 09:45:05;;;;;;;;;;;;;;;32.14;38.26;101400.05;107487;1254;112750;-71
2023/06/22 09:47:34;;;;;;;;;;;;;;;32.44;37.66;101406.02;107470;1259;109801;-67
2023/06/22 09:50:02;;;;;;;;;;;;;;;32.61;35.58;101408.02;107499;1254;108784;-67
2023/06/22 09:52:30;;;;;;;;;;;;;;;32.63;36.14;101407.98;107465;1254;99275;-67
2023/06/22 09:55:15;;;;;;;;;;;;;;;32.73;35.31;101403.34;107475;1254;99162;-68
2023/06/22 09:57:44;;;;;;;;;;;;;;;32.75;35.56;101399.91;107488;1254;113489;-65
2023/06/22 10:00:15;;;;;;;;;;;;;;;32.91;35.55;101397.05;107452;1254;109650;-66
2023/06/22 10:02:43;;;;;;;;;;;;;;;33.12;35.56;101396.96;107500;1254;108681;-67
2023/06/22 10:05:11;;;;;;;;;;;;;;;33.33;35.26;101393.30;107470;1255;99166;-65
2023/06/22 10:07:43;;;;;;;;;;;;;;;33.81;35.37;101389.08;107484;1254;99154;-66
2023/06/22 10:10:12;;;;;;;;;;;;;;;34.39;34.41;101389.67;107492;1254;113183;-67
2023/06/22 10:12:41;;;;;;;;;;;;;;;34.86;32.33;101384.91;107454;1258;109336;-67
2023/06/22 10:15:10;;;;;;;;;;;;;;;35.21;32.42;101385.71;107481;1254;108470;-66
2023/06/22 10:17:39;;;;;;;;;;;;;;;35.63;32.38;101385.29;107394;1254;99137;-66
2023/06/22 10:20:13;;;;;;;;;;;;;;;35.97;29.70;101387.27;107378;1258;99058;-66
2023/06/22 10:22:43;;;;;;;;;;;;;;;36.14;28.83;101384.55;107411;1257;113218;-66
2023/06/22 10:25:12;;;;;;;;;;;;;;;36.23;28.62;101380.23;107416;1254;109486;-65
2023/06/22 10:27:40;;;;;;;;;;;;;;;36.30;28.67;101379.55;107495;1254;108762;-66
2023/06/22 10:30:10;;;;;;;;;;;;;;;35.95;28.93;101378.94;107482;1257;99175;-67
2023/06/22 10:32:38;;;;;;;;;;;;;;;35.70;30.04;101376.28;107449;1258;99077;-66
2023/06/22 10:35:06;;;;;;;;;;;;;;;35.60;30.60;101374.01;107457;1254;114442;-66
2023/06/22 10:37:35;;;;;;;;;;;;;;;35.59;31.08;101374.70;107442;1254;109992;-66
2023/06/22 10:40:05;;;;;;;;;;;;;;;35.48;31.35;101368.95;107451;1258;107698;-65
2023/06/22 10:42:33;;;;;;;;;;;;;;;35.74;31.65;101370.98;107409;1259;99189;-65
2023/06/22 10:45:01;;;;;;;;;;;;;;;36.26;30.78;101367.73;107433;1254;99044;-67
2023/06/22 10:47:29;;;;;;;;;;;;;;;36.79;30.46;101364.68;107456;1254;113285;-68
2023/06/22 10:49:58;;;;;;;;;;;;;;;37.47;29.26;101363.46;107487;1257;109291;-66
2023/06/22 10:52:26;;;;;;;;;;;;;;;37.46;27.96;101359.77;107425;1254;108540;-66
2023/06/22 10:54:54;;;;;;;;;;;;;;;37.09;28.30;101353.02;107391;1254;99249;-66
2023/06/22 10:57:22;;;;;;;;;;;;;;;37.51;28.44;101349.31;107417;1254;99067;-66
2023/06/22 10:59:50;;;;;;;;;;;;;;;38.13;28.89;101345.84;107499;1254;113710;-66
2023/06/22 11:02:18;;;;;;;;;;;;;;;38.83;28.19;101344.02;107423;1254;109596;-67
2023/06/22 11:04:47;;;;;;;;;;;;;;;39.57;27.51;101341.69;107415;1254;108547;-63
2023/06/22 11:07:16;;;;;;;;;;;;;;;39.91;23.82;101340.06;107419;1259;99891;-65
2023/06/22 11:09:44;;;;;;;;;;;;;;;39.67;24.91;101336.00;107433;1256;99083;-66
2023/06/22 11:12:12;;;;;;;;;;;;;;;38.99;25.38;101333.50;107410;1259;112578;-65
2023/06/22 11:14:40;;;;;;;;;;;;;;;38.26;26.47;101331.60;107482;1254;109018;-67
2023/06/22 11:17:08;;;;;;;;;;;;;;;37.76;26.80;101330.39;107430;1257;108080;-66
2023/06/22 11:19:36;;;;;;;;;;;;;;;37.13;27.32;101331.09;107413;1254;99181;-65
2023/06/22 11:22:05;;;;;;;;;;;;;;;36.60;28.08;101326.84;107413;1254;99151;-66
2023/06/22 11:24:33;;;;;;;;;;;;;;;36.61;28.62;101322.91;107271;1259;113211;-67
2023/06/22 11:27:01;;;;;;;;;;;;;;;37.20;28.07;101317.41;107500;1253;108750;-66
2023/06/22 11:29:30;;;;;;;;;;;;;;;37.59;27.44;101313.95;107492;1255;107298;-68
2023/06/22 11:32:07;;;;;;;;;;;;;;;37.35;27.60;101314.05;107503;1259;98923;-66
2023/06/22 11:34:35;;;;;;;;;;;;;;;38.00;27.25;101311.65;107545;1257;99250;-67
2023/06/22 11:37:03;;;;;;;;;;;;;;;38.78;26.64;101308.41;107444;1255;112611;-66
2023/06/22 11:39:31;;;;;;;;;;;;;;;39.57;25.19;101307.48;107436;1258;110122;-65
2023/06/22 11:42:10;;;;;;;;;;;;;;;40.18;24.36;101304.27;107339;1258;107932;-67
2023/06/22 11:44:38;;;;;;;;;;;;;;;40.64;24.81;101304.27;107351;1257;99184;-66
2023/06/22 11:47:06;;;;;;;;;;;;;;;40.55;24.95;101306.17;107393;1254;99217;-69
2023/06/22 11:49:34;;;;;;;;;;;;;;;40.03;25.34;101299.08;107390;1254;113628;-67
2023/06/22 11:52:03;;;;;;;;;;;;;;;39.47;25.42;101296.52;107433;1254;109303;-65
2023/06/22 11:54:31;;;;;;;;;;;;;;;38.98;26.01;101289.14;107424;1257;107787;-67
2023/06/22 11:56:59;;;;;;;;;;;;;;;39.35;25.36;101287.70;107424;1257;99166;-65
2023/06/22 11:59:27;;;;;;;;;;;;;;;40.08;25.02;101288.05;107438;1254;99230;-66
2023/06/22 12:01:58;;;;;;;;;;;;;;;40.82;23.79;101289.23;107416;1258;112531;-66
2023/06/22 12:04:26;;;;;;;;;;;;;;;41.43;23.00;101285.09;107414;1254;109581;-66
2023/06/22 12:06:54;;;;;;;;;;;;;;;41.90;21.87;101283.45;107408;1260;108057;-65
2023/06/22 12:09:22;;;;;;;;;;;;;;;42.37;21.57;101277.82;107404;1255;99185;-65
2023/06/22 12:11:50;;;;;;;;;;;;;;;42.67;21.29;101280.80;107382;1254;99173;-66
2023/06/22 12:14:18;;;;;;;;;;;;;;;42.95;21.15;101277.34;107391;1254;112464;-66
2023/06/22 12:16:46;;;;;;;;;;;;;;;42.94;21.26;101273.85;107392;1257;109686;-66
2023/06/22 12:19:14;;;;;;;;;;;;;;;42.64;21.51;101267.41;107355;1255;108045;-67
2023/06/22 12:21:45;;;;;;;;;;;;;;;43.21;20.24;101264.67;107378;1258;99198;-65
2023/06/22 12:24:14;;;;;;;;;;;;;;;43.71;19.40;101260.61;107415;1254;99174;-66
2023/06/22 12:26:42;;;;;;;;;;;;;;;44.16;19.07;101262.38;107428;1254;113263;-67
2023/06/22 12:29:10;;;;;;;;;;;;;;;44.33;18.91;101263.91;107406;1259;109592;-66
2023/06/22 12:31:39;;;;;;;;;;;;;;;44.24;18.78;101256.89;107403;1254;108712;-65